Time;durP1;ratioP1;P1;durP2;ratioP2;P2;SDS_P1;SDS_P2;PMS_P1;PMS_P2;Temp;Humidity;BMP_temperature;BMP_pressure;BME280_temperature;BME280_humidity;BME280_pressure;Samples;Min_cycle;Max_cycle;Signal;HPM_P1;HPM_P2
2022/03/25 00:01:54;;;;;;;13.77;9.95;;;20.60;49.20;;;;;;4881023;29;20112;-58
2022/03/25 00:04:19;;;;;;;16.35;10.45;;;20.60;49.20;;;;;;4880097;29;20387;-58
2022/03/25 00:06:45;;;;;;;15.07;11.02;;;20.60;49.20;;;;;;4880394;29;20065;-58
2022/03/25 00:09:10;;;;;;;14.57;10.15;;;20.60;49.20;;;;;;4880644;29;20055;-59
2022/03/25 00:11:36;;;;;;;13.85;10.07;;;20.60;49.20;;;;;;4880010;29;20045;-58
2022/03/25 00:14:02;;;;;;;16.15;10.90;;;20.50;49.10;;;;;;4880641;29;20189;-58
2022/03/25 00:16:28;;;;;;;14.70;11.13;;;20.60;49.10;;;;;;4880733;29;20139;-58
2022/03/25 00:18:54;;;;;;;13.98;10.15;;;20.50;49.10;;;;;;4880016;29;20136;-59
2022/03/25 00:21:20;;;;;;;12.73;10.55;;;20.50;49.10;;;;;;4880115;29;20059;-58
2022/03/25 00:23:45;;;;;;;13.55;10.48;;;20.50;49.00;;;;;;4880675;29;20045;-58
2022/03/25 00:26:11;;;;;;;15.13;10.80;;;20.50;49.00;;;;;;4879462;29;20052;-58
2022/03/25 00:28:37;;;;;;;13.65;10.18;;;20.50;48.90;;;;;;4880652;29;20051;-58
2022/03/25 00:31:06;;;;;;;12.80;9.90;;;20.50;48.90;;;;;;4880184;29;20080;-58
2022/03/25 00:33:32;;;;;;;14.00;10.20;;;20.50;48.90;;;;;;4879021;29;20063;-58
2022/03/25 00:35:58;;;;;;;12.43;9.45;;;20.50;48.90;;;;;;4880323;29;20045;-59
2022/03/25 00:38:23;;;;;;;14.18;10.20;;;20.50;48.90;;;;;;4879971;29;20378;-58
2022/03/25 00:40:49;;;;;;;13.45;10.38;;;20.50;48.90;;;;;;4879789;29;20048;-58
2022/03/25 00:43:15;;;;;;;14.95;10.73;;;20.40;48.90;;;;;;4878592;29;20405;-58
2022/03/25 00:45:41;;;;;;;13.13;9.80;;;20.40;48.80;;;;;;4879937;29;20037;-58
2022/03/25 00:48:07;;;;;;;13.13;9.57;;;20.40;48.80;;;;;;4879063;29;20044;-58
2022/03/25 00:50:33;;;;;;;14.90;10.82;;;20.40;48.80;;;;;;4879954;29;20056;-58
2022/03/25 00:52:59;;;;;;;12.40;9.95;;;20.40;48.80;;;;;;4879446;29;20045;-58
2022/03/25 00:55:24;;;;;;;15.07;10.65;;;20.40;48.80;;;;;;4879938;29;20113;-58
2022/03/25 00:57:50;;;;;;;14.50;10.68;;;20.40;48.80;;;;;;4879925;29;20045;-58
2022/03/25 01:00:15;;;;;;;14.07;9.75;;;20.40;48.80;;;;;;4878842;29;20482;-58
2022/03/25 01:02:41;;;;;;;14.00;9.85;;;20.40;48.80;;;;;;4878399;29;20560;-58
2022/03/25 01:05:07;;;;;;;13.07;9.52;;;20.40;48.80;;;;;;4879745;29;20075;-58
2022/03/25 01:07:34;;;;;;;13.55;9.75;;;20.30;48.70;;;;;;4878609;29;20128;-59
2022/03/25 01:10:00;;;;;;;14.50;11.07;;;20.40;48.80;;;;;;4879679;29;20068;-58
2022/03/25 01:12:26;;;;;;;14.02;9.50;;;20.30;48.70;;;;;;4879458;29;20052;-59
2022/03/25 01:14:51;;;;;;;14.07;9.80;;;20.30;48.70;;;;;;4878526;29;20061;-58
2022/03/25 01:17:17;;;;;;;13.52;9.88;;;20.30;48.70;;;;;;4879620;29;20051;-58
2022/03/25 01:19:44;;;;;;;13.15;10.52;;;20.30;48.70;;;;;;4879473;29;20053;-59
2022/03/25 01:22:09;;;;;;;14.88;10.23;;;20.30;48.70;;;;;;4878770;29;20045;-58
2022/03/25 01:24:35;;;;;;;14.05;9.82;;;20.30;48.60;;;;;;4879473;29;20052;-58
2022/03/25 01:27:00;;;;;;;12.20;9.80;;;20.30;48.60;;;;;;4879517;29;20073;-58
2022/03/25 01:29:26;;;;;;;13.10;9.50;;;20.30;48.60;;;;;;4878190;29;20041;-58
2022/03/25 01:31:53;;;;;;;11.85;9.52;;;20.30;48.60;;;;;;4879565;29;20045;-58
2022/03/25 01:34:19;;;;;;;13.40;9.35;;;20.30;48.60;;;;;;4879275;29;20040;-58
2022/03/25 01:36:44;;;;;;;12.77;9.98;;;20.20;48.60;;;;;;4878542;29;20101;-58
2022/03/25 01:39:10;;;;;;;13.70;10.20;;;20.20;48.60;;;;;;4879362;29;20040;-58
2022/03/25 01:41:35;;;;;;;15.00;10.52;;;20.30;48.60;;;;;;4879116;29;20044;-58
2022/03/25 01:44:01;;;;;;;14.80;10.05;;;20.20;48.50;;;;;;4878482;29;20105;-58
2022/03/25 01:46:26;;;;;;;14.50;10.15;;;20.20;48.40;;;;;;4878213;29;20037;-58
2022/03/25 01:48:52;;;;;;;13.93;9.93;;;20.20;48.40;;;;;;4879316;29;20048;-58
2022/03/25 01:51:26;;;;;;;13.40;10.23;;;20.20;48.40;;;;;;4878305;29;20132;-58
2022/03/25 01:53:52;;;;;;;13.63;10.32;;;20.20;48.40;;;;;;4879204;29;20041;-58
2022/03/25 01:56:24;;;;;;;12.68;10.38;;;20.20;48.40;;;;;;4877849;29;20112;-58
2022/03/25 01:58:49;;;;;;;15.05;10.75;;;20.20;48.30;;;;;;4879215;29;20492;-58
2022/03/25 02:01:16;;;;;;;14.85;11.30;;;20.20;48.40;;;;;;4877397;29;20061;-58
2022/03/25 02:03:41;;;;;;;13.50;10.45;;;20.20;48.30;;;;;;4878135;29;20486;-58
2022/03/25 02:06:07;;;;;;;13.82;10.85;;;20.10;48.20;;;;;;4878814;29;20049;-58
2022/03/25 02:08:32;;;;;;;13.63;11.02;;;20.10;48.30;;;;;;4878546;29;20048;-58
2022/03/25 02:10:58;;;;;;;11.85;9.80;;;20.10;49.00;;;;;;4878200;29;20045;-58
2022/03/25 02:13:24;;;;;;;12.43;9.73;;;20.10;48.30;;;;;;4878434;29;20057;-59
2022/03/25 02:15:49;;;;;;;13.02;9.68;;;20.10;48.30;;;;;;4878696;29;20049;-59
2022/03/25 02:18:18;;;;;;;12.65;10.25;;;20.10;48.20;;;;;;4877976;29;20045;-58
2022/03/25 02:20:43;;;;;;;;;;;20.10;48.20;;;;;;4879409;29;20060;-59
2022/03/25 02:23:09;;;;;;;11.52;9.75;;;20.10;48.20;;;;;;4878740;29;19924;-59
2022/03/25 02:25:34;;;;;;;16.00;10.15;;;20.00;48.30;;;;;;4877879;29;20089;-58
2022/03/25 02:28:01;;;;;;;12.23;9.73;;;20.00;48.10;;;;;;4877833;29;20049;-58
2022/03/25 02:30:27;;;;;;;11.40;9.52;;;20.10;48.20;;;;;;4878646;29;20400;-58
2022/03/25 02:32:53;;;;;;;11.48;9.60;;;20.10;48.30;;;;;;4877765;29;20398;-58
2022/03/25 02:35:19;;;;;;;12.45;9.95;;;20.10;48.30;;;;;;4877136;29;20037;-58
2022/03/25 02:37:45;;;;;;;13.23;10.18;;;20.00;48.30;;;;;;4878372;29;20052;-58
2022/03/25 02:40:10;;;;;;;12.50;9.98;;;20.00;48.20;;;;;;4877577;29;20052;-58
2022/03/25 02:42:36;;;;;;;12.35;9.50;;;20.00;48.10;;;;;;4878359;29;20504;-59
2022/03/25 02:45:02;;;;;;;12.45;9.95;;;20.00;48.10;;;;;;4878774;29;20482;-59
2022/03/25 02:47:28;;;;;;;12.60;10.30;;;20.00;48.20;;;;;;4876448;29;20053;-59
2022/03/25 02:49:53;;;;;;;12.15;9.85;;;20.00;48.10;;;;;;4878476;29;20124;-59
2022/03/25 02:52:19;;;;;;;12.60;10.20;;;20.00;48.10;;;;;;4878112;29;20045;-58
2022/03/25 02:54:44;;;;;;;12.88;9.35;;;20.00;48.00;;;;;;4877831;29;20084;-59
2022/03/25 02:57:10;;;;;;;11.25;9.23;;;20.00;48.10;;;;;;4878561;29;20037;-59
2022/03/25 02:59:36;;;;;;;11.57;9.48;;;20.00;48.10;;;;;;4880895;29;20462;-59
2022/03/25 03:02:01;;;;;;;11.63;9.02;;;20.00;48.10;;;;;;4864941;29;20464;-58
2022/03/25 03:04:27;;;;;;;11.38;8.63;;;20.00;48.20;;;;;;4862200;29;20049;-58
2022/03/25 03:06:53;;;;;;;11.05;8.95;;;20.00;48.20;;;;;;4862097;29;20049;-59
2022/03/25 03:09:18;;;;;;;11.65;8.88;;;20.00;48.10;;;;;;4863081;29;20053;-58
2022/03/25 03:11:44;;;;;;;11.00;8.30;;;20.00;48.10;;;;;;4863489;29;20125;-58
2022/03/25 03:14:09;;;;;;;9.80;8.52;;;20.00;48.10;;;;;;4862506;29;20053;-59
2022/03/25 03:16:35;;;;;;;9.95;7.75;;;20.00;48.10;;;;;;4863193;29;20049;-58
2022/03/25 03:19:00;;;;;;;11.15;8.85;;;20.00;48.10;;;;;;4862768;29;20439;-59
2022/03/25 03:21:26;;;;;;;10.20;8.23;;;20.00;48.10;;;;;;4861348;29;20052;-58
2022/03/25 03:23:52;;;;;;;10.13;8.38;;;20.10;48.20;;;;;;4863147;29;20045;-58
2022/03/25 03:26:18;;;;;;;10.88;9.05;;;20.00;48.00;;;;;;4863001;29;20506;-58
2022/03/25 03:28:44;;;;;;;10.02;8.23;;;20.10;48.10;;;;;;4862549;29;20073;-58
2022/03/25 03:31:09;;;;;;;10.05;7.70;;;20.10;48.80;;;;;;4863204;29;20049;-58
2022/03/25 03:33:35;;;;;;;10.00;8.55;;;20.10;48.10;;;;;;4862846;29;20406;-58
2022/03/25 03:36:01;;;;;;;10.85;8.25;;;20.10;48.20;;;;;;4862106;29;20124;-59
2022/03/25 03:38:27;;;;;;;11.38;8.82;;;20.10;48.10;;;;;;4862633;29;20049;-58
2022/03/25 03:40:52;;;;;;;10.45;8.25;;;20.20;48.20;;;;;;4863019;29;20057;-58
2022/03/25 03:43:18;;;;;;;8.95;7.43;;;20.10;48.10;;;;;;4861999;29;20060;-59
2022/03/25 03:45:43;;;;;;;9.63;7.68;;;20.10;48.10;;;;;;4862905;29;20095;-58
2022/03/25 03:48:09;;;;;;;9.68;7.20;;;20.20;48.10;;;;;;4862716;29;20050;-59
2022/03/25 03:50:35;;;;;;;9.07;7.57;;;20.10;48.10;;;;;;4861458;29;20065;-58
2022/03/25 03:53:00;;;;;;;9.93;7.38;;;20.20;48.10;;;;;;4862797;29;20042;-58
2022/03/25 03:55:26;;;;;;;10.90;7.75;;;20.20;48.10;;;;;;4862618;29;20507;-58
2022/03/25 03:57:51;;;;;;;11.15;7.63;;;20.20;48.10;;;;;;4862094;29;20479;-58
2022/03/25 04:00:17;;;;;;;9.13;7.35;;;20.20;48.10;;;;;;4862397;29;20054;-58
2022/03/25 04:02:44;;;;;;;9.40;8.02;;;20.20;48.10;;;;;;4861838;29;20106;-58
2022/03/25 04:05:10;;;;;;;8.63;7.68;;;20.20;48.10;;;;;;4862400;29;20498;-58
2022/03/25 04:07:43;;;;;;;8.98;7.22;;;20.20;48.10;;;;;;4862496;29;20045;-58
2022/03/25 04:10:09;;;;;;;9.30;7.90;;;20.20;48.20;;;;;;4861389;29;20046;-58
2022/03/25 04:12:34;;;;;;;9.45;8.15;;;20.20;48.20;;;;;;4862034;29;20128;-58
2022/03/25 04:15:01;;;;;;;8.52;7.28;;;20.20;48.00;;;;;;4862376;29;20060;-58
2022/03/25 04:17:26;;;;;;;8.63;7.10;;;20.20;48.10;;;;;;4861332;29;20466;-58
2022/03/25 04:19:52;;;;;;;10.38;7.10;;;20.20;48.10;;;;;;4862214;29;20132;-58
2022/03/25 04:22:17;;;;;;;7.68;6.78;;;20.20;48.10;;;;;;4861723;29;20052;-58
2022/03/25 04:24:43;;;;;;;8.95;7.15;;;20.20;48.20;;;;;;4861553;29;20089;-58
2022/03/25 04:27:09;;;;;;;7.85;6.22;;;20.20;48.10;;;;;;4862721;29;20088;-58
2022/03/25 04:29:34;;;;;;;7.78;6.60;;;20.20;48.00;;;;;;4862072;29;20045;-58
2022/03/25 04:32:00;;;;;;;7.80;6.60;;;20.20;48.10;;;;;;4861132;29;20093;-58
2022/03/25 04:34:25;;;;;;;8.95;6.80;;;20.20;48.00;;;;;;4861672;29;20056;-58
2022/03/25 04:36:51;;;;;;;7.47;6.65;;;20.20;47.90;;;;;;4861735;29;20042;-58
2022/03/25 04:39:16;;;;;;;7.75;6.38;;;20.20;48.00;;;;;;4860910;29;20501;-58
2022/03/25 04:41:42;;;;;;;8.68;7.00;;;20.20;48.10;;;;;;4861760;29;20140;-58
2022/03/25 04:44:08;;;;;;;8.40;6.88;;;20.20;48.10;;;;;;4861799;29;20041;-58
2022/03/25 04:46:34;;;;;;;8.90;7.32;;;20.20;48.00;;;;;;4860818;29;20383;-58
2022/03/25 04:49:00;;;;;;;7.93;6.53;;;20.20;47.90;;;;;;4861867;29;20061;-59
2022/03/25 04:51:26;;;;;;;8.68;6.65;;;20.20;48.00;;;;;;4861275;29;20045;-59
2022/03/25 04:53:51;;;;;;;7.53;6.15;;;20.20;47.90;;;;;;4861101;29;20038;-58
2022/03/25 04:56:18;;;;;;;8.00;6.55;;;20.20;47.90;;;;;;4861533;29;20096;-59
2022/03/25 04:58:44;;;;;;;7.28;5.95;;;20.20;47.90;;;;;;4861593;29;20053;-58
2022/03/25 05:01:10;;;;;;;7.03;6.15;;;20.20;47.90;;;;;;4865452;29;20044;-58
2022/03/25 05:03:35;;;;;;;6.90;6.07;;;20.20;48.00;;;;;;4879389;29;20053;-58
2022/03/25 05:06:01;;;;;;;7.15;6.20;;;20.20;48.00;;;;;;4878005;29;20048;-58
2022/03/25 05:08:26;;;;;;;7.85;6.45;;;20.20;48.00;;;;;;4879498;29;20073;-58
2022/03/25 05:10:52;;;;;;;7.05;6.20;;;20.20;48.00;;;;;;4879986;29;20051;-58
2022/03/25 05:13:18;;;;;;;8.00;6.53;;;20.20;47.90;;;;;;4878610;29;20053;-58
2022/03/25 05:15:43;;;;;;;7.82;6.40;;;20.20;47.90;;;;;;4879973;29;20048;-58
2022/03/25 05:18:09;;;;;;;7.30;5.97;;;20.20;47.90;;;;;;4878701;29;20481;-58
2022/03/25 05:20:36;;;;;;;7.68;5.85;;;20.20;47.80;;;;;;4878401;29;20048;-58
2022/03/25 05:23:01;;;;;;;7.35;6.03;;;20.20;47.80;;;;;;4878762;29;20049;-58
2022/03/25 05:25:27;;;;;;;7.43;6.20;;;20.20;47.90;;;;;;4879129;29;20052;-58
2022/03/25 05:27:54;;;;;;;6.82;5.80;;;20.20;47.80;;;;;;4878928;29;20084;-58
2022/03/25 05:30:22;;;;;;;7.22;5.90;;;20.20;47.80;;;;;;4879382;29;20041;-58
2022/03/25 05:32:47;;;;;;;6.55;5.10;;;20.30;47.90;;;;;;4879703;29;20056;-58
2022/03/25 05:35:13;;;;;;;6.40;5.70;;;20.20;47.80;;;;;;4878193;29;20045;-58
2022/03/25 05:37:39;;;;;;;6.40;5.47;;;20.30;47.80;;;;;;4879455;29;20052;-58
2022/03/25 05:40:06;;;;;;;6.47;5.32;;;20.30;47.70;;;;;;4879515;29;20089;-58
2022/03/25 05:42:32;;;;;;;5.97;5.38;;;20.30;47.70;;;;;;4878396;29;20041;-58
2022/03/25 05:44:58;;;;;;;6.15;5.22;;;20.30;47.70;;;;;;4879677;29;20049;-58
2022/03/25 05:47:23;;;;;;;6.97;5.60;;;20.30;47.70;;;;;;4878917;29;20045;-58
2022/03/25 05:49:49;;;;;;;6.15;5.15;;;20.30;47.70;;;;;;4878531;29;20490;-58
2022/03/25 05:52:14;;;;;;;6.53;5.47;;;20.30;47.70;;;;;;4878997;29;20084;-58
2022/03/25 05:54:40;;;;;;;6.90;5.32;;;20.30;47.60;;;;;;4879263;29;20474;-58
2022/03/25 05:57:06;;;;;;;5.97;5.38;;;20.30;47.60;;;;;;4878311;29;20072;-58
2022/03/25 05:59:32;;;;;;;7.85;5.47;;;20.30;47.60;;;;;;4878821;29;20480;-58
2022/03/25 06:01:57;;;;;;;6.80;5.40;;;20.30;47.60;;;;;;4879206;29;20049;-59
2022/03/25 06:04:23;;;;;;;6.45;5.38;;;20.30;47.60;;;;;;4877715;29;20053;-58
2022/03/25 06:06:49;;;;;;;6.43;5.00;;;20.40;47.70;;;;;;4878695;29;20060;-58
2022/03/25 06:09:14;;;;;;;6.05;5.13;;;20.30;47.60;;;;;;4878598;29;20049;-58
2022/03/25 06:11:40;;;;;;;5.57;4.85;;;20.30;47.70;;;;;;4877944;29;20084;-58
2022/03/25 06:14:05;;;;;;;6.38;5.22;;;20.40;47.70;;;;;;4878068;29;20057;-58
2022/03/25 06:16:31;;;;;;;5.63;4.80;;;20.40;47.70;;;;;;4878038;29;20049;-58
2022/03/25 06:18:57;;;;;;;5.88;4.80;;;20.40;47.70;;;;;;4878617;29;20053;-57
2022/03/25 06:21:22;;;;;;;5.20;4.32;;;20.40;47.70;;;;;;4878187;29;20052;-58
2022/03/25 06:23:48;;;;;;;5.32;4.80;;;20.40;47.70;;;;;;4878327;29;20045;-58
2022/03/25 06:26:13;;;;;;;4.97;4.10;;;20.40;47.60;;;;;;4878720;29;20048;-58
2022/03/25 06:28:39;;;;;;;5.40;4.60;;;20.40;47.60;;;;;;4878748;29;20044;-58
2022/03/25 06:31:04;;;;;;;5.78;4.82;;;20.40;47.60;;;;;;4878144;29;20401;-58
2022/03/25 06:33:30;;;;;;;5.95;4.80;;;20.40;47.60;;;;;;4880271;29;20111;-58
2022/03/25 06:35:56;;;;;;;6.50;4.65;;;20.40;47.60;;;;;;4882649;29;20393;-58
2022/03/25 06:38:21;;;;;;;5.45;4.57;;;20.40;47.60;;;;;;4881777;29;20044;-58
2022/03/25 06:40:47;;;;;;;5.28;4.50;;;20.40;47.70;;;;;;4882227;29;20109;-58
2022/03/25 06:43:12;;;;;;;6.25;4.70;;;20.50;47.70;;;;;;4882184;29;20513;-58
2022/03/25 06:45:38;;;;;;;6.28;4.63;;;20.50;47.80;;;;;;4881809;29;20101;-58
2022/03/25 06:48:04;;;;;;;5.47;4.60;;;20.50;47.70;;;;;;4882480;29;20053;-58
2022/03/25 06:50:29;;;;;;;5.35;4.05;;;20.50;47.70;;;;;;4881906;29;20386;-58
2022/03/25 06:52:57;;;;;;;5.45;4.57;;;20.50;47.70;;;;;;4881436;29;20056;-58
2022/03/25 06:55:23;;;;;;;5.88;4.63;;;20.50;47.70;;;;;;4882235;29;20049;-58
2022/03/25 06:57:49;;;;;;;5.25;4.20;;;20.50;47.80;;;;;;4882332;29;20101;-58
2022/03/25 07:00:15;;;;;;;5.57;4.35;;;20.50;47.70;;;;;;4881073;29;20045;-58
2022/03/25 07:02:42;;;;;;;5.00;4.10;;;20.60;47.70;;;;;;4881900;29;20504;-58
2022/03/25 07:05:10;;;;;;;4.78;4.07;;;20.60;47.70;;;;;;4882195;29;20132;-58
2022/03/25 07:07:36;;;;;;;5.40;4.40;;;20.60;47.80;;;;;;4880976;29;20421;-58
2022/03/25 07:10:01;;;;;;;6.03;5.03;;;20.60;47.80;;;;;;4865570;29;20048;-58
2022/03/25 07:12:27;;;;;;;8.48;4.50;;;20.60;47.70;;;;;;4881263;29;20120;-58
2022/03/25 07:14:53;;;;;;;6.78;4.40;;;20.60;47.70;;;;;;4880968;29;20068;-58
2022/03/25 07:17:18;;;;;;;5.57;4.50;;;20.60;47.50;;;;;;4881690;29;20049;-58
2022/03/25 07:19:44;;;;;;;7.22;4.82;;;20.60;47.40;;;;;;4887715;29;20055;-58
2022/03/25 07:22:09;;;;;;;6.03;4.50;;;20.70;47.40;;;;;;4900413;29;20503;-58
2022/03/25 07:24:34;;;;;;;6.55;4.78;;;20.70;47.40;;;;;;4899542;29;20104;-58
2022/03/25 07:27:00;;;;;;;7.90;5.35;;;20.70;47.40;;;;;;4881588;29;20045;-57
2022/03/25 07:29:25;;;;;;;5.88;4.47;;;20.70;47.50;;;;;;4881269;29;20053;-57
2022/03/25 07:31:51;;;;;;;7.00;5.25;;;20.70;47.60;;;;;;4881301;29;20482;-58
2022/03/25 07:34:16;;;;;;;6.13;4.28;;;20.70;47.60;;;;;;4888680;29;20044;-58
2022/03/25 07:36:42;;;;;;;8.93;4.68;;;20.80;47.70;;;;;;4888869;29;20127;-58
2022/03/25 07:39:07;;;;;;;7.95;5.55;;;20.80;47.70;;;;;;4886030;29;20048;-58
2022/03/25 07:41:34;;;;;;;9.70;5.88;;;20.80;47.70;;;;;;4898924;29;20493;-58
2022/03/25 07:43:59;;;;;;;9.13;5.85;;;20.80;47.70;;;;;;4899373;29;20056;-58
2022/03/25 07:46:25;;;;;;;7.63;5.78;;;20.80;47.80;;;;;;4899379;29;20113;-58
2022/03/25 07:48:51;;;;;;;8.95;5.68;;;20.90;47.90;;;;;;4885658;29;20505;-58
2022/03/25 07:51:16;;;;;;;8.38;5.60;;;20.90;48.00;;;;;;4899484;29;20485;-58
2022/03/25 07:53:43;;;;;;;9.25;5.72;;;20.90;48.00;;;;;;4899976;29;20055;-58
2022/03/25 07:56:09;;;;;;;10.63;5.88;;;20.90;48.10;;;;;;4879147;29;20132;-58
2022/03/25 07:58:35;;;;;;;7.35;5.60;;;20.90;48.20;;;;;;4880572;29;20136;-58
2022/03/25 08:01:00;;;;;;;10.60;6.45;;;21.00;48.40;;;;;;4880613;29;20507;-58
2022/03/25 08:03:26;;;;;;;11.10;6.78;;;21.00;48.50;;;;;;4879605;29;20460;-58
2022/03/25 08:05:52;;;;;;;11.25;5.93;;;21.00;48.70;;;;;;4880221;29;20045;-58
2022/03/25 08:08:20;;;;;;;9.32;6.25;;;21.00;48.80;;;;;;4880203;29;20084;-58
2022/03/25 08:10:46;;;;;;;10.05;6.10;;;21.00;48.80;;;;;;4877258;29;20076;-58
2022/03/25 08:13:12;;;;;;;9.30;6.03;;;21.00;48.90;;;;;;4880118;29;20084;-57
2022/03/25 08:15:38;;;;;;;8.07;5.88;;;21.10;49.00;;;;;;4880497;29;20473;-57
2022/03/25 08:18:07;;;;;;;7.25;5.53;;;21.10;49.00;;;;;;4879310;29;20128;-57
2022/03/25 08:20:40;;;;;;;8.55;5.18;;;21.10;49.10;;;;;;4878522;29;20124;-57
2022/03/25 08:23:13;;;;;;;9.73;5.93;;;21.10;49.10;;;;;;4877312;29;20041;-57
2022/03/25 08:28:26;;;;;;;11.17;6.03;;;21.20;49.20;;;;;;4877676;29;20045;-57
2022/03/25 08:30:52;;;;;;;6.32;4.88;;;21.20;49.10;;;;;;4879180;29;20041;-57
2022/03/25 08:33:18;;;;;;;7.88;5.90;;;21.20;49.10;;;;;;4879489;29;20454;-58
2022/03/25 08:35:43;;;;;;;9.30;5.40;;;21.20;49.20;;;;;;4879358;29;20044;-57
2022/03/25 08:38:09;;;;;;;8.13;5.20;;;21.20;49.20;;;;;;4879051;29;20124;-58
2022/03/25 08:40:35;;;;;;;8.88;5.65;;;21.30;49.20;;;;;;4879584;29;20045;-57
2022/03/25 08:43:01;;;;;;;10.80;5.40;;;21.30;49.20;;;;;;4879687;29;20111;-57
2022/03/25 08:45:27;;;;;;;8.52;5.25;;;21.30;49.30;;;;;;4878791;29;20508;-57
2022/03/25 08:47:53;;;;;;;7.32;5.32;;;21.30;49.30;;;;;;4879475;29;20045;-57
2022/03/25 08:50:18;;;;;;;6.85;4.95;;;21.30;49.40;;;;;;4879146;29;20040;-58
2022/03/25 08:52:45;;;;;;;8.38;5.95;;;21.30;49.40;;;;;;4878814;29;20064;-57
2022/03/25 08:55:11;;;;;;;8.60;5.97;;;21.40;49.50;;;;;;4879099;29;20048;-57
2022/03/25 08:57:37;;;;;;;10.15;5.88;;;21.40;49.50;;;;;;4879524;29;20230;-58
2022/03/25 09:00:04;;;;;;;9.55;5.72;;;21.40;49.50;;;;;;4878826;29;20052;-58
2022/03/25 09:02:30;;;;;;;7.43;5.93;;;21.40;49.50;;;;;;4880333;29;20104;-57
2022/03/25 09:04:55;;;;;;;8.93;5.97;;;21.40;49.40;;;;;;4879128;29;20041;-58
2022/03/25 09:07:20;;;;;;;8.02;6.22;;;21.40;49.40;;;;;;4878410;29;20501;-58
2022/03/25 09:09:47;;;;;;;7.88;6.32;;;21.40;49.40;;;;;;4879132;29;20041;-58
2022/03/25 09:12:12;;;;;;;8.23;5.70;;;21.40;49.30;;;;;;4878043;29;20045;-58
2022/03/25 09:14:38;;;;;;;10.60;6.70;;;21.40;49.20;;;;;;4879060;29;20466;-56
2022/03/25 09:17:04;;;;;;;9.90;6.90;;;21.40;49.10;;;;;;4879206;29;20074;-58
2022/03/25 09:19:30;;;;;;;11.73;6.85;;;21.40;49.10;;;;;;4878903;29;20077;-57
2022/03/25 09:21:55;;;;;;;9.10;6.25;;;21.40;49.10;;;;;;4879633;29;20057;-57
2022/03/25 09:24:21;;;;;;;10.20;6.50;;;21.40;49.10;;;;;;4877605;29;20056;-57
2022/03/25 09:26:46;;;;;;;7.95;6.05;;;21.40;49.10;;;;;;4883748;29;20045;-58
2022/03/25 09:29:12;;;;;;;10.32;6.43;;;21.40;49.10;;;;;;4880549;29;20136;-57
2022/03/25 09:31:38;;;;;;;8.45;6.05;;;21.40;49.10;;;;;;4879487;29;20173;-57
2022/03/25 09:36:48;;;;;;;8.85;5.78;;;21.40;49.00;;;;;;4879095;29;20049;-58
2022/03/25 09:39:14;;;;;;;9.23;6.25;;;21.40;49.20;;;;;;4878874;29;20053;-57
2022/03/25 09:41:39;;;;;;;9.38;6.10;;;21.40;49.30;;;;;;4878545;29;20045;-57
2022/03/25 09:44:05;;;;;;;11.55;6.15;;;21.40;49.40;;;;;;4862096;29;20524;-58
2022/03/25 09:46:31;;;;;;;8.70;6.13;;;21.40;49.50;;;;;;4877518;29;20052;-58
2022/03/25 09:48:56;;;;;;;10.55;5.85;;;21.50;49.60;;;;;;4877635;29;20059;-58
2022/03/25 09:51:22;;;;;;;10.10;5.93;;;21.40;49.60;;;;;;4878660;29;20120;-58
2022/03/25 09:53:48;;;;;;;9.15;5.90;;;21.40;49.70;;;;;;4878593;29;20063;-58
2022/03/25 09:56:16;;;;;;;9.10;5.60;;;21.50;49.90;;;;;;4877987;29;20055;-58
2022/03/25 09:58:42;;;;;;;;;;;21.50;50.00;;;;;;4878943;29;20052;-58
2022/03/25 10:01:07;;;;;;;9.50;6.10;;;21.40;49.90;;;;;;4878053;29;19923;-58
2022/03/25 10:03:33;;;;;;;11.32;6.38;;;21.50;49.90;;;;;;4876922;29;20057;-58
2022/03/25 10:05:59;;;;;;;12.77;5.93;;;21.50;50.10;;;;;;4878317;29;20060;-58
2022/03/25 10:08:30;;;;;;;9.38;5.82;;;21.50;50.20;;;;;;4876569;29;20041;-58
2022/03/25 10:10:55;;;;;;;8.88;6.22;;;21.50;50.30;;;;;;4878351;29;20049;-57
2022/03/25 10:13:21;;;;;;;10.63;6.18;;;21.50;50.30;;;;;;4877848;29;20048;-57
2022/03/25 10:15:46;;;;;;;9.93;6.00;;;21.50;50.30;;;;;;4878229;29;20057;-57
2022/03/25 10:18:12;;;;;;;8.55;5.82;;;21.50;50.30;;;;;;4878330;29;20049;-57
2022/03/25 10:20:38;;;;;;;10.32;6.35;;;21.50;50.30;;;;;;4878701;29;20148;-58
2022/03/25 10:23:11;;;;;;;9.35;5.82;;;21.50;50.30;;;;;;4878087;29;20053;-58
2022/03/25 10:25:47;;;;;;;7.68;5.20;;;21.50;50.30;;;;;;4878725;29;20482;-58
2022/03/25 10:28:29;;;;;;;8.20;5.82;;;21.50;50.30;;;;;;4878444;29;20049;-59
2022/03/25 10:30:59;;;;;;;9.35;6.28;;;21.50;50.40;;;;;;4877133;29;20045;-58
2022/03/25 10:33:36;;;;;;;8.68;5.90;;;21.50;50.30;;;;;;4878022;29;20473;-57
2022/03/25 10:36:08;;;;;;;9.32;5.90;;;21.50;50.40;;;;;;4876695;29;20052;-57
2022/03/25 10:38:41;;;;;;;7.60;5.53;;;21.60;50.50;;;;;;4876543;29;20050;-57
2022/03/25 10:41:07;;;;;;;8.70;6.35;;;21.50;50.40;;;;;;4879611;29;20049;-57
2022/03/25 10:43:32;;;;;;;9.90;6.95;;;21.50;50.30;;;;;;4877704;29;20044;-56
2022/03/25 10:45:58;;;;;;;12.00;6.53;;;21.60;50.40;;;;;;4877603;29;20093;-58
2022/03/25 10:48:24;;;;;;;10.77;6.25;;;21.60;50.30;;;;;;4878098;29;20084;-58
2022/03/25 10:50:59;;;;;;;9.73;6.53;;;21.60;50.50;;;;;;4877357;29;20517;-57
2022/03/25 10:53:26;;;;;;;11.15;7.32;;;21.60;50.60;;;;;;4878127;29;20055;-57
2022/03/25 10:55:55;;;;;;;11.30;7.00;;;21.60;50.50;;;;;;4878463;29;20045;-57
2022/03/25 10:58:21;;;;;;;12.85;7.80;;;21.60;50.50;;;;;;4877626;29;20060;-57
2022/03/25 11:00:47;;;;;;;12.27;7.88;;;21.60;50.50;;;;;;4878548;29;20041;-58
2022/03/25 11:03:14;;;;;;;10.05;7.03;;;21.60;50.50;;;;;;4876959;29;20041;-56
2022/03/25 11:05:40;;;;;;;12.43;8.07;;;21.60;50.50;;;;;;4877758;29;20322;-57
2022/03/25 11:08:05;;;;;;;12.85;8.45;;;21.60;50.40;;;;;;4878725;29;20504;-58
2022/03/25 11:10:31;;;;;;;11.25;7.82;;;21.50;50.20;;;;;;4878154;29;20045;-58
2022/03/25 11:12:57;;;;;;;12.50;8.02;;;21.50;50.40;;;;;;4860889;29;20053;-58
2022/03/25 11:15:23;;;;;;;14.93;9.02;;;21.50;50.40;;;;;;4877653;29;20140;-58
2022/03/25 11:17:48;;;;;;;13.13;8.63;;;21.50;50.50;;;;;;4877914;29;20553;-59
2022/03/25 11:20:15;;;;;;;16.67;8.35;;;21.50;50.50;;;;;;4878281;29;20049;-58
2022/03/25 11:22:51;;;;;;;11.48;8.05;;;21.50;50.50;;;;;;4881585;29;20108;-58
2022/03/25 11:25:21;;;;;;;10.73;7.80;;;21.50;50.60;;;;;;4879888;29;20057;-58
2022/03/25 11:28:01;;;;;;;12.60;8.20;;;21.60;50.60;;;;;;4879908;29;20054;-57
2022/03/25 11:30:35;;;;;;;13.30;8.48;;;21.60;50.60;;;;;;4880166;29;20045;-57
2022/03/25 11:33:04;;;;;;;12.20;7.50;;;21.60;50.60;;;;;;4881083;29;20045;-57
2022/03/25 11:35:32;;;;;;;13.30;8.52;;;21.60;50.60;;;;;;4881302;29;20045;-57
2022/03/25 11:38:13;;;;;;;12.82;7.60;;;21.60;50.60;;;;;;4878935;29;20048;-58
2022/03/25 11:40:46;;;;;;;17.08;9.80;;;21.60;50.50;;;;;;4880184;29;20049;-57
2022/03/25 11:43:22;;;;;;;16.10;9.27;;;21.60;50.10;;;;;;4881358;29;20059;-57
2022/03/25 11:45:59;;;;;;;14.43;9.45;;;21.60;49.60;;;;;;4881167;29;20045;-57
2022/03/25 11:48:25;;;;;;;13.67;9.23;;;21.60;49.50;;;;;;4880351;29;20055;-57
2022/03/25 11:50:51;;;;;;;15.82;9.48;;;21.60;49.50;;;;;;4881342;29;20309;-57
2022/03/25 11:53:17;;;;;;;13.10;8.48;;;21.60;49.50;;;;;;4879790;29;20144;-57
2022/03/25 11:56:05;;;;;;;13.20;8.40;;;21.60;49.50;;;;;;4879951;29;20044;-57
2022/03/25 11:58:32;;;;;;;13.20;9.23;;;21.60;49.50;;;;;;4895408;29;20405;-57
2022/03/25 12:01:05;;;;;;;13.55;8.50;;;21.60;49.50;;;;;;4886541;29;20447;-57
2022/03/25 12:03:50;;;;;;;14.25;9.00;;;21.60;49.60;;;;;;4880551;29;20532;-57
2022/03/25 12:06:22;;;;;;;15.20;8.90;;;21.60;49.50;;;;;;4880429;29;20079;-57
2022/03/25 12:09:15;;;;;;;12.95;9.50;;;21.60;49.50;;;;;;4880163;29;20045;-58
2022/03/25 12:11:59;;;;;;;12.18;8.27;;;21.60;49.50;;;;;;4881485;29;20140;-56
2022/03/25 12:14:31;;;;;;;14.07;9.23;;;21.60;49.60;;;;;;4879918;29;20072;-58
2022/03/25 12:17:02;;;;;;;14.27;9.18;;;21.60;49.70;;;;;;4879756;29;20064;-58
2022/03/25 12:19:30;;;;;;;13.23;9.20;;;21.60;49.70;;;;;;4879418;29;20040;-58
2022/03/25 12:21:59;;;;;;;;;;;21.60;49.70;;;;;;4880019;29;20401;-58
2022/03/25 12:24:25;;;;;;;14.45;9.45;;;21.60;49.40;;;;;;4878897;29;20396;-58
2022/03/25 12:27:02;;;;;;;14.57;8.43;;;21.60;49.70;;;;;;4875819;29;20045;-58
2022/03/25 12:29:54;;;;;;;12.68;8.73;;;21.60;49.50;;;;;;4872909;29;20056;-58
2022/03/25 12:32:24;;;;;;;12.05;8.50;;;21.60;49.50;;;;;;4876446;29;20037;-58
2022/03/25 12:34:54;;;;;;;11.35;8.07;;;21.60;49.60;;;;;;4876818;29;20041;-58
2022/03/25 12:37:35;;;;;;;14.25;7.80;;;21.70;49.70;;;;;;4870360;29;20120;-58
2022/03/25 12:40:27;;;;;;;16.08;8.43;;;21.70;49.70;;;;;;4872192;29;20093;-58
2022/03/25 12:42:54;;;;;;;12.27;8.00;;;21.70;49.60;;;;;;4870757;29;20041;-58
2022/03/25 12:45:36;;;;;;;12.98;7.90;;;21.70;49.60;;;;;;4871513;29;20045;-58